createdAt,value
2023-02-12T00:01:41.524Z,99.90
2023-02-12T00:04:10.225Z,99.90
2023-02-12T00:06:41.177Z,99.90
2023-02-12T00:09:09.869Z,99.90
2023-02-12T00:11:38.615Z,99.90
2023-02-12T00:14:07.309Z,99.90
2023-02-12T00:16:36.011Z,99.90
2023-02-12T00:19:04.929Z,99.90
2023-02-12T00:21:33.753Z,99.90
2023-02-12T00:24:02.874Z,99.90
2023-02-12T00:26:31.723Z,99.90
2023-02-12T00:29:00.358Z,99.90
2023-02-12T00:31:31.866Z,99.90
2023-02-12T00:34:01.781Z,99.90
2023-02-12T00:36:32.222Z,99.90
2023-02-12T00:39:04.177Z,99.90
2023-02-12T00:41:32.940Z,99.90
2023-02-12T00:44:01.599Z,99.90
2023-02-12T00:46:30.403Z,99.90
2023-02-12T00:48:59.135Z,99.90
2023-02-12T00:51:27.853Z,99.90
2023-02-12T00:53:56.538Z,99.90
2023-02-12T00:56:25.243Z,99.90
2023-02-12T00:58:53.914Z,99.90
2023-02-12T01:01:22.633Z,99.90
2023-02-12T01:03:51.286Z,99.90
2023-02-12T01:06:20.051Z,99.90
2023-02-12T01:08:52.549Z,99.90
2023-02-12T01:11:21.872Z,99.90
2023-02-12T01:13:50.871Z,99.90
2023-02-12T01:16:23.115Z,99.90
2023-02-12T01:18:55.990Z,99.90
2023-02-12T01:21:29.158Z,99.90
2023-02-12T01:23:59.119Z,99.90
2023-02-12T01:26:28.723Z,99.90
2023-02-12T01:29:02.446Z,99.90
2023-02-12T01:31:35.411Z,99.90
2023-02-12T01:34:03.837Z,99.90
2023-02-12T01:36:32.963Z,99.90
2023-02-12T01:39:03.870Z,99.90
2023-02-12T01:41:35.916Z,99.90
2023-02-12T01:44:23.210Z,99.90
2023-02-12T01:46:58.503Z,99.90
2023-02-12T01:49:30.674Z,99.90
2023-02-12T01:52:25.913Z,99.90
2023-02-12T01:54:57.366Z,99.90
2023-02-12T01:57:27.882Z,99.90
2023-02-12T02:00:01.117Z,99.90
2023-02-12T02:02:30.173Z,99.90
2023-02-12T02:05:02.933Z,99.90
2023-02-12T02:07:31.371Z,99.90
2023-02-12T02:10:00.513Z,99.90
2023-02-12T02:12:49.473Z,99.90
2023-02-12T02:15:18.414Z,99.90
2023-02-12T02:18:17.293Z,99.90
2023-02-12T02:20:47.948Z,99.90
2023-02-12T02:23:40.815Z,99.90
2023-02-12T02:26:22.457Z,99.90
2023-02-12T02:29:30.364Z,99.90
2023-02-12T02:32:07.191Z,99.90
2023-02-12T02:34:48.735Z,99.90
2023-02-12T02:37:24.445Z,99.90
2023-02-12T02:39:55.985Z,99.90
2023-02-12T02:42:39.097Z,99.90
2023-02-12T02:45:20.179Z,99.90
2023-02-12T02:48:13.372Z,99.90
2023-02-12T02:50:43.057Z,99.90
2023-02-12T02:53:17.989Z,99.90
2023-02-12T02:55:52.782Z,99.80
2023-02-12T02:58:27.015Z,99.70
2023-02-12T03:01:03.692Z,99.60
2023-02-12T03:03:41.364Z,99.60
2023-02-12T03:06:18.436Z,99.10
2023-02-12T03:08:56.034Z,99.70
2023-02-12T03:11:30.012Z,98.90
2023-02-12T03:14:07.749Z,98.20
2023-02-12T03:16:42.787Z,98.50
2023-02-12T03:19:17.697Z,98.70
2023-02-12T03:21:50.479Z,98.60
2023-02-12T03:24:29.976Z,99.30
2023-02-12T03:27:21.853Z,99.20
2023-02-12T03:29:51.475Z,98.70
2023-02-12T03:32:47.699Z,98.60
2023-02-12T03:35:31.934Z,97.60
2023-02-12T03:38:07.020Z,97.00
2023-02-12T03:40:50.385Z,97.50
2023-02-12T03:43:23.446Z,97.50
2023-02-12T03:46:00.367Z,97.20
2023-02-12T03:48:38.619Z,97.00
2023-02-12T03:51:31.264Z,97.50
2023-02-12T03:54:00.247Z,97.70
2023-02-12T03:57:06.866Z,97.90
2023-02-12T03:59:39.182Z,97.70
2023-02-12T04:02:08.445Z,97.30
2023-02-12T04:04:37.896Z,95.70
2023-02-12T04:07:06.724Z,95.90
2023-02-12T04:09:35.384Z,95.70
2023-02-12T04:12:11.162Z,96.60
2023-02-12T04:15:09.035Z,95.90
2023-02-12T04:17:42.497Z,96.20
2023-02-12T04:20:39.146Z,96.00
2023-02-12T04:23:14.096Z,95.60
2023-02-12T04:25:59.099Z,96.00
2023-02-12T04:28:45.395Z,95.90
2023-02-12T04:31:20.128Z,95.50
2023-02-12T04:34:11.456Z,95.70
2023-02-12T04:36:50.571Z,94.80
2023-02-12T04:39:24.102Z,93.40
2023-02-12T04:41:53.074Z,94.00
2023-02-12T04:44:26.941Z,93.70
2023-02-12T04:46:55.724Z,93.60
2023-02-12T04:49:25.718Z,94.80
2023-02-12T04:51:54.765Z,92.70
2023-02-12T04:54:24.356Z,93.30
2023-02-12T04:56:53.194Z,93.80
2023-02-12T04:59:22.216Z,94.40
2023-02-12T05:01:51.138Z,93.40
2023-02-12T05:04:20.936Z,94.00
2023-02-12T05:06:49.631Z,94.10
2023-02-12T05:09:20.967Z,93.80
2023-02-12T05:11:49.647Z,92.30
2023-02-12T05:14:18.288Z,92.30
2023-02-12T05:16:46.993Z,93.10
2023-02-12T05:19:15.764Z,92.30
2023-02-12T05:21:44.462Z,93.90
2023-02-12T05:24:13.129Z,93.20
2023-02-12T05:26:41.946Z,93.10
2023-02-12T05:29:10.692Z,93.90
2023-02-12T05:31:39.688Z,93.30
2023-02-12T05:34:11.441Z,94.00
2023-02-12T05:36:40.762Z,93.60
2023-02-12T05:39:09.546Z,93.30
2023-02-12T05:41:38.190Z,94.10
2023-02-12T05:44:07.652Z,93.80
2023-02-12T05:46:36.324Z,92.40
2023-02-12T05:49:05.162Z,91.10
2023-02-12T05:51:34.125Z,91.30
2023-02-12T05:54:05.632Z,91.10
2023-02-12T05:56:37.024Z,92.60
2023-02-12T05:59:10.253Z,91.70
2023-02-12T06:01:41.485Z,92.60
2023-02-12T06:04:15.934Z,92.30
2023-02-12T06:06:45.292Z,93.20
2023-02-12T06:09:15.007Z,91.60
2023-02-12T06:11:44.755Z,92.90
2023-02-12T06:14:16.994Z,91.10
2023-02-12T06:16:50.110Z,89.90
2023-02-12T06:19:20.140Z,91.40
2023-02-12T06:21:49.163Z,91.00
2023-02-12T06:24:18.852Z,89.70
2023-02-12T06:26:50.688Z,91.30
2023-02-12T06:29:20.452Z,90.80
2023-02-12T06:31:49.992Z,87.60
2023-02-12T06:34:19.621Z,90.50
2023-02-12T06:36:49.561Z,90.00
2023-02-12T06:39:19.036Z,87.50
2023-02-12T06:41:47.728Z,91.20
2023-02-12T06:44:16.648Z,91.30
2023-02-12T06:46:45.713Z,90.70
2023-02-12T06:49:15.445Z,90.10
2023-02-12T06:51:44.314Z,90.40
2023-02-12T06:54:16.403Z,88.60
2023-02-12T06:56:45.751Z,90.70
2023-02-12T06:59:16.569Z,90.20
2023-02-12T07:01:45.492Z,91.10
2023-02-12T07:04:14.493Z,91.10
2023-02-12T07:06:43.287Z,89.70
2023-02-12T07:09:12.049Z,88.20
2023-02-12T07:11:40.995Z,91.10
2023-02-12T07:14:09.712Z,87.00
2023-02-12T07:16:38.415Z,87.00
2023-02-12T07:19:07.090Z,89.60
2023-02-12T07:21:35.921Z,89.70
2023-02-12T07:24:04.625Z,83.80
2023-02-12T07:26:33.324Z,83.70
2023-02-12T07:29:01.988Z,83.30
2023-02-12T07:31:30.965Z,86.30
2023-02-12T07:34:01.238Z,88.10
2023-02-12T07:36:32.394Z,87.50
2023-02-12T07:39:02.538Z,87.50
2023-02-12T07:41:33.924Z,84.60
2023-02-12T07:44:08.600Z,82.20
2023-02-12T07:46:40.104Z,85.60
2023-02-12T07:49:11.828Z,81.90
2023-02-12T07:51:40.798Z,87.20
2023-02-12T07:54:09.903Z,86.60
2023-02-12T07:56:40.362Z,84.60
2023-02-12T07:59:13.826Z,84.50
2023-02-12T08:01:45.340Z,79.20
2023-02-12T08:04:16.249Z,78.60
2023-02-12T08:06:47.955Z,81.90
2023-02-12T08:09:20.029Z,85.00
2023-02-12T08:11:49.479Z,79.70
2023-02-12T08:14:20.374Z,81.50
2023-02-12T08:16:50.938Z,81.20
2023-02-12T08:19:24.937Z,80.30
2023-02-12T08:21:56.097Z,82.60
2023-02-12T08:24:25.610Z,79.90
2023-02-12T08:26:54.638Z,81.20
2023-02-12T08:29:26.704Z,84.20
2023-02-12T08:32:04.714Z,77.20
2023-02-12T08:34:37.070Z,82.20
2023-02-12T08:37:08.956Z,81.00
2023-02-12T08:39:37.681Z,83.50
2023-02-12T08:42:06.830Z,77.60
2023-02-12T08:44:35.530Z,78.40
2023-02-12T08:47:04.174Z,77.60
2023-02-12T08:49:32.953Z,76.10
2023-02-12T08:52:03.392Z,75.00
2023-02-12T08:54:33.672Z,75.00
2023-02-12T08:57:04.111Z,77.90
2023-02-12T08:59:33.316Z,78.40
2023-02-12T09:02:02.853Z,79.40
2023-02-12T09:04:31.840Z,80.40
2023-02-12T09:07:00.617Z,77.00
2023-02-12T09:09:29.301Z,76.50
2023-02-12T09:11:58.028Z,75.40
2023-02-12T09:14:26.781Z,80.10
2023-02-12T09:16:58.468Z,75.40
2023-02-12T09:19:27.438Z,77.00
2023-02-12T09:21:57.264Z,82.20
2023-02-12T09:24:28.487Z,79.90
2023-02-12T09:26:57.571Z,73.80
2023-02-12T09:29:26.472Z,71.90
2023-02-12T09:31:55.353Z,72.80
2023-02-12T09:34:24.241Z,71.90
2023-02-12T09:36:52.921Z,73.10
2023-02-12T09:39:21.649Z,71.60
2023-02-12T09:42:19.002Z,73.90
2023-02-12T09:45:11.249Z,72.80
2023-02-12T09:47:59.945Z,75.80
2023-02-12T09:50:46.110Z,78.90
2023-02-12T09:53:17.883Z,76.10
2023-02-12T09:55:47.113Z,78.40
2023-02-12T09:58:25.164Z,75.50
2023-02-12T10:00:53.839Z,69.20
2023-02-12T10:03:23.241Z,71.00
2023-02-12T10:06:00.145Z,71.80
2023-02-12T10:08:41.389Z,71.00
2023-02-12T10:11:14.496Z,70.10
2023-02-12T10:14:04.200Z,68.50
2023-02-12T10:16:56.384Z,68.00
2023-02-12T10:20:04.289Z,69.30
2023-02-12T10:23:08.519Z,72.50
2023-02-12T10:25:45.945Z,68.10
2023-02-12T10:28:19.284Z,67.30
2023-02-12T10:31:04.778Z,67.60
2023-02-12T10:33:39.125Z,69.10
2023-02-12T10:36:23.214Z,68.60
2023-02-12T10:38:57.969Z,71.40
2023-02-12T10:41:28.687Z,73.10
2023-02-12T10:43:57.905Z,69.60
2023-02-12T10:46:26.535Z,70.00
2023-02-12T10:48:59.730Z,72.80
2023-02-12T10:51:55.973Z,70.90
2023-02-12T10:54:46.198Z,72.10
2023-02-12T10:57:15.806Z,71.60
2023-02-12T10:59:47.387Z,71.70
2023-02-12T11:02:31.676Z,71.30
2023-02-12T11:05:03.679Z,74.20
2023-02-12T11:07:49.295Z,72.70
2023-02-12T11:10:41.794Z,72.60
2023-02-12T11:13:29.141Z,73.30
2023-02-12T11:15:58.396Z,74.20
2023-02-12T11:18:30.075Z,75.10
2023-02-12T11:21:01.960Z,74.50
2023-02-12T11:23:33.040Z,75.20
2023-02-12T11:26:05.264Z,74.90
2023-02-12T11:28:37.183Z,75.30
2023-02-12T11:31:23.525Z,75.60
2023-02-12T11:34:17.453Z,75.80
2023-02-12T11:36:49.436Z,76.80
2023-02-12T11:39:25.680Z,76.90
2023-02-12T11:41:57.408Z,77.20
2023-02-12T11:44:38.363Z,77.50
2023-02-12T11:47:12.594Z,77.60
2023-02-12T11:49:55.338Z,77.90
2023-02-12T11:52:28.887Z,77.90
2023-02-12T11:55:04.273Z,78.20
2023-02-12T11:57:50.640Z,78.40
2023-02-12T12:00:30.760Z,78.70
2023-02-12T12:03:08.922Z,78.90
2023-02-12T12:05:44.501Z,79.00
2023-02-12T12:08:37.311Z,79.40
2023-02-12T12:11:26.087Z,79.60
2023-02-12T12:14:00.540Z,79.80
2023-02-12T12:17:15.914Z,80.00
2023-02-12T12:19:57.465Z,80.20
2023-02-12T12:22:38.728Z,80.40
2023-02-12T12:25:17.444Z,80.60
2023-02-12T12:28:10.903Z,80.80
2023-02-12T12:31:00.740Z,81.00
2023-02-12T12:33:53.089Z,81.30
2023-02-12T12:36:26.242Z,81.50
2023-02-12T12:39:34.078Z,81.50
2023-02-12T12:42:42.138Z,81.60
2023-02-12T12:45:19.894Z,81.50
2023-02-12T12:48:16.099Z,81.80
2023-02-12T12:50:45.643Z,81.60
2023-02-12T12:53:29.644Z,81.90
2023-02-12T12:56:14.714Z,82.00
2023-02-12T12:58:54.739Z,82.20
2023-02-12T13:01:38.388Z,82.30
2023-02-12T13:04:34.016Z,82.30
2023-02-12T13:07:33.665Z,82.60
2023-02-12T13:10:22.266Z,82.70
2023-02-12T13:13:07.331Z,82.70
2023-02-12T13:15:56.356Z,82.90
2023-02-12T13:18:49.609Z,83.30
2023-02-12T13:21:19.472Z,83.60
2023-02-12T13:24:11.909Z,83.70
2023-02-12T13:26:50.332Z,83.90
2023-02-12T13:29:27.919Z,84.20
2023-02-12T13:32:09.448Z,84.30
2023-02-12T13:34:40.610Z,84.60
2023-02-12T13:37:16.671Z,84.90
2023-02-12T13:39:49.323Z,85.20
2023-02-12T13:42:23.409Z,85.50
2023-02-12T13:45:13.092Z,85.40
2023-02-12T13:48:07.612Z,85.80
2023-02-12T13:50:43.270Z,86.20
2023-02-12T13:53:47.533Z,86.50
2023-02-12T13:56:52.335Z,86.50
2023-02-12T13:59:37.434Z,86.80
2023-02-12T14:02:08.081Z,87.00
2023-02-12T14:05:00.927Z,87.10
2023-02-12T14:07:48.562Z,87.30
2023-02-12T14:10:28.425Z,87.40
2023-02-12T14:13:12.476Z,87.30
2023-02-12T14:15:46.120Z,87.20
2023-02-12T14:18:36.081Z,86.90
2023-02-12T14:21:13.274Z,87.00
2023-02-12T14:23:43.925Z,86.80
2023-02-12T14:26:16.537Z,87.00
2023-02-12T14:29:05.958Z,87.00
2023-02-12T14:31:37.398Z,86.90
2023-02-12T14:34:08.552Z,87.10
2023-02-12T14:36:41.671Z,87.10
2023-02-12T14:39:26.803Z,87.10
2023-02-12T14:42:16.217Z,87.10
2023-02-12T14:45:00.471Z,87.30
2023-02-12T14:47:33.593Z,87.70
2023-02-12T14:50:13.827Z,87.80
2023-02-12T14:52:49.876Z,87.90
2023-02-12T14:55:24.485Z,88.10
2023-02-12T14:57:59.577Z,88.10
2023-02-12T15:00:34.377Z,88.30
2023-02-12T15:03:26.120Z,88.50
2023-02-12T15:05:59.275Z,88.90
2023-02-12T15:08:45.604Z,88.60
2023-02-12T15:11:41.954Z,88.50
2023-02-12T15:14:32.180Z,88.70
2023-02-12T15:17:26.459Z,88.70
2023-02-12T15:20:00.793Z,88.70
2023-02-12T15:22:45.296Z,88.40
2023-02-12T15:25:32.824Z,87.70
2023-02-12T15:28:13.125Z,87.70
2023-02-12T15:30:44.393Z,87.80
2023-02-12T15:33:28.092Z,88.20
2023-02-12T15:35:57.947Z,88.60
2023-02-12T15:38:38.483Z,88.50
2023-02-12T15:41:08.151Z,88.60
2023-02-12T15:43:42.473Z,88.50
2023-02-12T15:46:19.269Z,89.20
2023-02-12T15:48:48.451Z,89.30
2023-02-12T15:51:33.516Z,89.60
2023-02-12T15:54:05.248Z,89.70
2023-02-12T15:56:37.149Z,89.90
2023-02-12T15:59:06.282Z,89.70
2023-02-12T16:01:36.634Z,89.40
2023-02-12T16:04:07.942Z,89.70
2023-02-12T16:06:37.865Z,89.80
2023-02-12T16:09:29.885Z,90.00
2023-02-12T16:12:03.470Z,90.20
2023-02-12T16:14:44.385Z,90.60
2023-02-12T16:17:31.427Z,90.80
2023-02-12T16:20:02.964Z,90.90
2023-02-12T16:22:40.435Z,90.90
2023-02-12T16:25:22.196Z,91.00
2023-02-12T16:28:15.319Z,91.20
2023-02-12T16:30:44.300Z,91.20
2023-02-12T16:33:33.118Z,91.00
2023-02-12T16:36:07.090Z,91.20
2023-02-12T16:38:40.296Z,91.40
2023-02-12T16:41:22.200Z,91.70
2023-02-12T16:44:13.346Z,91.60
2023-02-12T16:46:52.554Z,91.70
2023-02-12T16:49:24.864Z,91.70
2023-02-12T16:51:54.752Z,91.70
2023-02-12T16:54:34.611Z,91.80
2023-02-12T16:57:03.858Z,92.00
2023-02-12T17:04:08.233Z,92.50
2023-02-12T17:06:37.041Z,92.60
2023-02-12T17:09:05.899Z,92.70
2023-02-12T17:11:34.758Z,92.60
2023-02-12T17:14:03.575Z,92.50
2023-02-12T17:16:32.627Z,92.60
2023-02-12T17:19:02.460Z,92.80
2023-02-12T17:21:38.846Z,92.70
2023-02-12T17:24:30.227Z,92.80
2023-02-12T17:26:59.976Z,92.90
2023-02-12T17:29:31.775Z,93.00
2023-02-12T17:32:00.904Z,93.00
2023-02-12T17:34:34.117Z,93.20
2023-02-12T17:37:08.718Z,93.00
2023-02-12T17:39:37.571Z,93.10
2023-02-12T17:42:07.547Z,93.20
2023-02-12T17:44:36.430Z,93.10
2023-02-12T17:47:05.299Z,93.30
2023-02-12T17:49:35.052Z,93.30
2023-02-12T17:52:06.988Z,93.40
2023-02-12T17:54:36.131Z,93.40
2023-02-12T17:57:05.272Z,93.40
2023-02-12T17:59:34.137Z,93.60
2023-02-12T18:02:03.734Z,93.60
2023-02-12T18:04:36.848Z,93.60
2023-02-12T18:07:06.729Z,93.60
2023-02-12T18:09:37.654Z,93.50
2023-02-12T18:12:07.432Z,93.70
2023-02-12T18:14:36.254Z,93.80
2023-02-12T18:17:05.139Z,93.70
2023-02-12T18:19:33.991Z,93.80
2023-02-12T18:22:03.154Z,93.40
2023-02-12T18:24:34.299Z,93.20
2023-02-12T18:27:03.424Z,93.30
2023-02-12T18:29:32.239Z,93.50
2023-02-12T18:32:01.003Z,93.60
2023-02-12T18:34:29.808Z,93.70
2023-02-12T18:36:58.772Z,93.50
2023-02-12T18:39:27.805Z,93.50
2023-02-12T18:41:56.633Z,93.60
2023-02-12T18:44:25.506Z,93.60
2023-02-12T18:46:54.361Z,93.80
2023-02-12T18:49:23.132Z,93.90
2023-02-12T18:51:51.928Z,93.90
2023-02-12T18:54:21.090Z,93.80
2023-02-12T18:56:54.362Z,94.00
2023-02-12T18:59:25.179Z,94.20
2023-02-12T19:01:55.142Z,94.00
2023-02-12T19:04:27.467Z,94.00
2023-02-12T19:06:56.894Z,94.00
2023-02-12T19:09:27.769Z,94.10
2023-02-12T19:11:58.476Z,93.90
2023-02-12T19:14:28.595Z,93.70
2023-02-12T19:16:57.499Z,93.80
2023-02-12T19:19:27.894Z,93.90
2023-02-12T19:21:56.561Z,94.10
2023-02-12T19:24:26.225Z,94.30
2023-02-12T19:26:57.404Z,94.30
2023-02-12T19:29:26.165Z,94.30
2023-02-12T19:31:54.933Z,94.40
2023-02-12T19:34:29.802Z,94.70
2023-02-12T19:36:58.514Z,94.90
2023-02-12T19:39:27.433Z,94.90
2023-02-12T19:41:58.840Z,95.10
2023-02-12T19:44:27.775Z,95.00
2023-02-12T19:46:57.504Z,95.00
2023-02-12T19:49:28.078Z,94.90
2023-02-12T19:51:56.720Z,94.90
2023-02-12T19:54:26.195Z,95.30
2023-02-12T19:56:56.340Z,95.20
2023-02-12T19:59:27.811Z,94.70
2023-02-12T20:01:57.478Z,94.70
2023-02-12T20:04:26.897Z,94.30
2023-02-12T20:06:56.671Z,94.40
2023-02-12T20:09:25.520Z,94.80
2023-02-12T20:11:54.746Z,95.50
2023-02-12T20:14:23.626Z,96.20
2023-02-12T20:16:54.780Z,96.20
2023-02-12T20:19:27.571Z,96.10
2023-02-12T20:21:57.613Z,96.00
2023-02-12T20:24:29.337Z,96.00
2023-02-12T20:27:00.201Z,96.00
2023-02-12T20:29:29.860Z,96.00
2023-02-12T20:31:59.491Z,96.10
2023-02-12T20:34:28.224Z,96.10
2023-02-12T20:36:56.945Z,96.30
2023-02-12T20:39:28.652Z,96.30
2023-02-12T20:41:57.270Z,96.30
2023-02-12T20:44:25.956Z,96.30
2023-02-12T20:46:57.729Z,96.30
2023-02-12T20:49:26.829Z,96.40
2023-02-12T20:51:55.641Z,96.20
2023-02-12T20:54:24.421Z,96.20
2023-02-12T20:56:53.976Z,96.20
2023-02-12T20:59:22.635Z,96.30
2023-02-12T21:01:51.423Z,96.00
2023-02-12T21:04:21.081Z,96.20
2023-02-12T21:06:49.864Z,96.30
2023-02-12T21:09:19.898Z,96.10
2023-02-12T21:11:49.270Z,96.10
2023-02-12T21:14:23.548Z,96.30
2023-02-12T21:16:54.954Z,96.20
2023-02-12T21:19:24.408Z,96.40
2023-02-12T21:21:53.294Z,96.40
2023-02-12T21:24:24.797Z,96.60
2023-02-12T21:26:54.971Z,96.80
2023-02-12T21:29:24.258Z,96.40
2023-02-12T21:31:53.087Z,97.00
2023-02-12T21:34:23.823Z,97.00
2023-02-12T21:36:55.479Z,97.00
2023-02-12T21:39:28.268Z,97.10
2023-02-12T21:42:03.340Z,97.10
2023-02-12T21:44:40.575Z,97.10
2023-02-12T21:47:09.881Z,96.80
2023-02-12T21:49:38.537Z,96.80
2023-02-12T21:52:07.661Z,97.00
2023-02-12T21:54:36.610Z,97.00
2023-02-12T21:57:05.429Z,96.70
2023-02-12T21:59:37.151Z,96.60
2023-02-12T22:02:07.010Z,96.90
2023-02-12T22:04:35.687Z,96.60
2023-02-12T22:07:04.873Z,96.60
2023-02-12T22:09:33.679Z,96.60
2023-02-12T22:12:02.528Z,96.50
2023-02-12T22:14:31.345Z,96.40
2023-02-12T22:17:00.211Z,96.30
2023-02-12T22:19:29.011Z,96.30
2023-02-12T22:21:57.635Z,96.50
2023-02-12T22:24:26.262Z,96.50
2023-02-12T22:26:56.048Z,96.90
2023-02-12T22:29:24.708Z,97.10
2023-02-12T22:31:53.701Z,97.00
2023-02-12T22:34:22.495Z,97.10
2023-02-12T22:36:51.239Z,97.10
2023-02-12T22:39:20.340Z,97.00
2023-02-12T22:41:49.343Z,97.10
2023-02-12T22:44:21.081Z,97.20
2023-02-12T22:46:51.185Z,97.50
2023-02-12T22:49:20.002Z,97.80
2023-02-12T22:51:48.739Z,98.00
2023-02-12T22:54:18.734Z,98.10
2023-02-12T22:56:51.160Z,98.20
2023-02-12T22:59:20.402Z,97.90
2023-02-12T23:01:49.071Z,97.50
2023-02-12T23:04:20.705Z,98.40
2023-02-12T23:06:49.622Z,98.60
2023-02-12T23:09:20.072Z,98.70
2023-02-12T23:11:49.895Z,98.80
2023-02-12T23:14:19.174Z,99.00
2023-02-12T23:16:48.544Z,99.10
2023-02-12T23:19:17.304Z,99.00
2023-02-12T23:21:46.039Z,99.20
2023-02-12T23:24:15.831Z,99.00
2023-02-12T23:26:44.779Z,98.80
2023-02-12T23:29:13.896Z,98.70
2023-02-12T23:31:42.660Z,98.50
2023-02-12T23:34:11.426Z,98.20
2023-02-12T23:36:40.125Z,98.50
2023-02-12T23:39:10.369Z,99.00
2023-02-12T23:41:39.179Z,99.00
2023-02-12T23:44:07.962Z,98.70
2023-02-12T23:46:36.703Z,98.70
2023-02-12T23:49:05.721Z,98.40
2023-02-12T23:51:34.914Z,98.60
2023-02-12T23:54:03.701Z,98.60
2023-02-12T23:56:32.469Z,98.70
2023-02-12T23:59:01.123Z,98.50
